sensor_id;sensor_type;location;lat;lon;timestamp;P1;durP1;ratioP1;P2;durP2;ratioP2
22622;SDS011;11478;51.094;7.030;2024-02-26T00:01:56;1.10;;;1.00;;
22622;SDS011;11478;51.094;7.030;2024-02-26T00:04:22;1.58;;;1.10;;
22622;SDS011;11478;51.094;7.030;2024-02-26T00:06:48;1.88;;;0.90;;
22622;SDS011;11478;51.094;7.030;2024-02-26T00:09:16;2.55;;;1.00;;
22622;SDS011;11478;51.094;7.030;2024-02-26T00:11:42;1.52;;;1.17;;
22622;SDS011;11478;51.094;7.030;2024-02-26T00:14:08;2.08;;;0.90;;
22622;SDS011;11478;51.094;7.030;2024-02-26T00:16:39;3.35;;;1.20;;
22622;SDS011;11478;51.094;7.030;2024-02-26T00:19:06;1.92;;;1.10;;
22622;SDS011;11478;51.094;7.030;2024-02-26T00:21:33;2.53;;;1.10;;
22622;SDS011;11478;51.094;7.030;2024-02-26T00:23:59;3.85;;;1.27;;
22622;SDS011;11478;51.094;7.030;2024-02-26T00:26:26;2.92;;;1.08;;
22622;SDS011;11478;51.094;7.030;2024-02-26T00:28:52;2.00;;;1.02;;
22622;SDS011;11478;51.094;7.030;2024-02-26T00:31:36;2.97;;;1.00;;
22622;SDS011;11478;51.094;7.030;2024-02-26T00:34:03;1.75;;;1.00;;
22622;SDS011;11478;51.094;7.030;2024-02-26T00:36:44;3.17;;;1.13;;
22622;SDS011;11478;51.094;7.030;2024-02-26T00:39:28;5.05;;;1.27;;
22622;SDS011;11478;51.094;7.030;2024-02-26T00:41:54;4.78;;;1.30;;
22622;SDS011;11478;51.094;7.030;2024-02-26T00:44:20;3.03;;;1.17;;
22622;SDS011;11478;51.094;7.030;2024-02-26T00:46:45;3.67;;;1.00;;
22622;SDS011;11478;51.094;7.030;2024-02-26T00:49:21;2.78;;;1.10;;
22622;SDS011;11478;51.094;7.030;2024-02-26T00:51:46;2.30;;;1.30;;
22622;SDS011;11478;51.094;7.030;2024-02-26T00:54:30;2.83;;;0.88;;
22622;SDS011;11478;51.094;7.030;2024-02-26T00:56:55;2.17;;;1.10;;
22622;SDS011;11478;51.094;7.030;2024-02-26T00:59:26;1.95;;;1.10;;
22622;SDS011;11478;51.094;7.030;2024-02-26T01:01:52;1.05;;;0.80;;
22622;SDS011;11478;51.094;7.030;2024-02-26T01:04:18;4.22;;;1.20;;
22622;SDS011;11478;51.094;7.030;2024-02-26T01:06:44;4.03;;;1.02;;
22622;SDS011;11478;51.094;7.030;2024-02-26T01:09:19;1.33;;;1.10;;
22622;SDS011;11478;51.094;7.030;2024-02-26T01:11:45;3.13;;;1.55;;
22622;SDS011;11478;51.094;7.030;2024-02-26T01:16:41;2.88;;;0.90;;
22622;SDS011;11478;51.094;7.030;2024-02-26T01:21:57;1.95;;;1.00;;
22622;SDS011;11478;51.094;7.030;2024-02-26T01:32:32;4.03;;;1.35;;
22622;SDS011;11478;51.094;7.030;2024-02-26T01:35:10;1.48;;;1.00;;
22622;SDS011;11478;51.094;7.030;2024-02-26T01:37:37;2.90;;;1.10;;
22622;SDS011;11478;51.094;7.030;2024-02-26T01:40:03;1.77;;;0.80;;
22622;SDS011;11478;51.094;7.030;2024-02-26T01:45:00;2.47;;;0.90;;
22622;SDS011;11478;51.094;7.030;2024-02-26T01:47:34;2.83;;;1.10;;
22622;SDS011;11478;51.094;7.030;2024-02-26T01:52:26;3.83;;;1.20;;
22622;SDS011;11478;51.094;7.030;2024-02-26T01:54:52;1.10;;;0.82;;
22622;SDS011;11478;51.094;7.030;2024-02-26T01:57:22;4.57;;;1.20;;
22622;SDS011;11478;51.094;7.030;2024-02-26T01:59:48;1.38;;;0.98;;
22622;SDS011;11478;51.094;7.030;2024-02-26T02:02:14;2.30;;;0.90;;
22622;SDS011;11478;51.094;7.030;2024-02-26T02:04:41;1.73;;;1.05;;
22622;SDS011;11478;51.094;7.030;2024-02-26T02:07:10;1.50;;;0.93;;
22622;SDS011;11478;51.094;7.030;2024-02-26T02:09:37;4.32;;;1.30;;
22622;SDS011;11478;51.094;7.030;2024-02-26T02:12:04;1.30;;;0.90;;
22622;SDS011;11478;51.094;7.030;2024-02-26T02:14:31;3.22;;;1.55;;
22622;SDS011;11478;51.094;7.030;2024-02-26T02:16:58;1.70;;;0.90;;
22622;SDS011;11478;51.094;7.030;2024-02-26T02:19:24;3.35;;;1.15;;
22622;SDS011;11478;51.094;7.030;2024-02-26T02:22:02;3.13;;;1.10;;
22622;SDS011;11478;51.094;7.030;2024-02-26T02:24:28;4.63;;;1.10;;
22622;SDS011;11478;51.094;7.030;2024-02-26T02:26:55;2.58;;;1.20;;
22622;SDS011;11478;51.094;7.030;2024-02-26T02:29:21;2.08;;;1.30;;
22622;SDS011;11478;51.094;7.030;2024-02-26T02:31:49;2.65;;;1.13;;
22622;SDS011;11478;51.094;7.030;2024-02-26T02:34:15;3.15;;;1.20;;
22622;SDS011;11478;51.094;7.030;2024-02-26T02:36:54;3.80;;;1.20;;
22622;SDS011;11478;51.094;7.030;2024-02-26T02:39:20;1.20;;;0.88;;
22622;SDS011;11478;51.094;7.030;2024-02-26T02:45:16;1.60;;;1.02;;
22622;SDS011;11478;51.094;7.030;2024-02-26T02:47:42;0.88;;;0.77;;
22622;SDS011;11478;51.094;7.030;2024-02-26T02:50:09;1.30;;;0.90;;
22622;SDS011;11478;51.094;7.030;2024-02-26T02:52:35;2.15;;;0.90;;
22622;SDS011;11478;51.094;7.030;2024-02-26T02:55:01;4.70;;;1.05;;
22622;SDS011;11478;51.094;7.030;2024-02-26T02:59:58;1.30;;;0.90;;
22622;SDS011;11478;51.094;7.030;2024-02-26T03:02:26;2.92;;;1.00;;
22622;SDS011;11478;51.094;7.030;2024-02-26T03:04:54;2.97;;;1.05;;
22622;SDS011;11478;51.094;7.030;2024-02-26T03:07:20;1.88;;;1.08;;
22622;SDS011;11478;51.094;7.030;2024-02-26T03:09:47;2.03;;;0.98;;
22622;SDS011;11478;51.094;7.030;2024-02-26T03:12:13;4.20;;;1.10;;
22622;SDS011;11478;51.094;7.030;2024-02-26T03:14:43;4.95;;;1.77;;
22622;SDS011;11478;51.094;7.030;2024-02-26T03:17:09;2.17;;;1.00;;
22622;SDS011;11478;51.094;7.030;2024-02-26T03:22:07;2.78;;;1.00;;
22622;SDS011;11478;51.094;7.030;2024-02-26T03:24:34;2.55;;;0.90;;
22622;SDS011;11478;51.094;7.030;2024-02-26T03:26:59;1.98;;;1.05;;
22622;SDS011;11478;51.094;7.030;2024-02-26T03:31:57;0.90;;;0.90;;
22622;SDS011;11478;51.094;7.030;2024-02-26T03:37:19;1.05;;;0.95;;
22622;SDS011;11478;51.094;7.030;2024-02-26T03:39:45;2.22;;;1.02;;
22622;SDS011;11478;51.094;7.030;2024-02-26T03:42:12;1.90;;;1.10;;
22622;SDS011;11478;51.094;7.030;2024-02-26T03:44:37;3.13;;;1.20;;
22622;SDS011;11478;51.094;7.030;2024-02-26T03:47:03;1.83;;;1.00;;
22622;SDS011;11478;51.094;7.030;2024-02-26T03:49:29;2.67;;;0.90;;
22622;SDS011;11478;51.094;7.030;2024-02-26T03:51:55;3.10;;;1.08;;
22622;SDS011;11478;51.094;7.030;2024-02-26T03:54:21;2.47;;;1.08;;
22622;SDS011;11478;51.094;7.030;2024-02-26T03:56:47;7.43;;;3.65;;
22622;SDS011;11478;51.094;7.030;2024-02-26T03:59:19;1.80;;;1.00;;
22622;SDS011;11478;51.094;7.030;2024-02-26T04:01:47;1.88;;;0.90;;
22622;SDS011;11478;51.094;7.030;2024-02-26T04:04:26;2.70;;;1.10;;
22622;SDS011;11478;51.094;7.030;2024-02-26T04:06:52;1.02;;;0.90;;
22622;SDS011;11478;51.094;7.030;2024-02-26T04:09:24;2.20;;;1.02;;
22622;SDS011;11478;51.094;7.030;2024-02-26T04:11:50;2.63;;;1.17;;
22622;SDS011;11478;51.094;7.030;2024-02-26T04:14:17;1.35;;;0.95;;
22622;SDS011;11478;51.094;7.030;2024-02-26T04:16:43;4.97;;;1.50;;
22622;SDS011;11478;51.094;7.030;2024-02-26T04:19:23;2.58;;;1.00;;
22622;SDS011;11478;51.094;7.030;2024-02-26T04:21:48;1.58;;;1.02;;
22622;SDS011;11478;51.094;7.030;2024-02-26T04:24:14;0.80;;;0.80;;
22622;SDS011;11478;51.094;7.030;2024-02-26T04:26:40;1.30;;;1.20;;
22622;SDS011;11478;51.094;7.030;2024-02-26T04:29:06;2.70;;;1.10;;
22622;SDS011;11478;51.094;7.030;2024-02-26T04:31:32;5.15;;;1.60;;
22622;SDS011;11478;51.094;7.030;2024-02-26T04:33:58;3.35;;;1.20;;
22622;SDS011;11478;51.094;7.030;2024-02-26T04:36:28;1.10;;;1.00;;
22622;SDS011;11478;51.094;7.030;2024-02-26T04:38:54;1.30;;;1.00;;
22622;SDS011;11478;51.094;7.030;2024-02-26T04:41:23;3.13;;;1.10;;
22622;SDS011;11478;51.094;7.030;2024-02-26T04:43:48;2.35;;;1.20;;
22622;SDS011;11478;51.094;7.030;2024-02-26T04:46:36;2.13;;;1.10;;
22622;SDS011;11478;51.094;7.030;2024-02-26T04:49:08;2.63;;;1.30;;
22622;SDS011;11478;51.094;7.030;2024-02-26T04:51:34;3.45;;;1.42;;
22622;SDS011;11478;51.094;7.030;2024-02-26T04:54:00;4.68;;;1.70;;
22622;SDS011;11478;51.094;7.030;2024-02-26T04:56:27;1.63;;;1.50;;
22622;SDS011;11478;51.094;7.030;2024-02-26T04:58:53;3.60;;;1.33;;
22622;SDS011;11478;51.094;7.030;2024-02-26T05:01:19;10.70;;;3.35;;
22622;SDS011;11478;51.094;7.030;2024-02-26T05:03:45;2.88;;;1.52;;
22622;SDS011;11478;51.094;7.030;2024-02-26T05:06:11;1.90;;;1.15;;
22622;SDS011;11478;51.094;7.030;2024-02-26T05:08:38;3.25;;;1.45;;
22622;SDS011;11478;51.094;7.030;2024-02-26T05:11:04;1.63;;;1.20;;
22622;SDS011;11478;51.094;7.030;2024-02-26T05:13:32;3.92;;;1.40;;
22622;SDS011;11478;51.094;7.030;2024-02-26T05:15:58;1.52;;;1.10;;
22622;SDS011;11478;51.094;7.030;2024-02-26T05:21:14;5.53;;;1.45;;
22622;SDS011;11478;51.094;7.030;2024-02-26T05:23:42;10.73;;;2.60;;
22622;SDS011;11478;51.094;7.030;2024-02-26T05:26:09;10.15;;;3.60;;
22622;SDS011;11478;51.094;7.030;2024-02-26T05:28:35;4.28;;;1.88;;
22622;SDS011;11478;51.094;7.030;2024-02-26T05:31:01;1.48;;;1.20;;
22622;SDS011;11478;51.094;7.030;2024-02-26T05:33:28;10.50;;;3.50;;
22622;SDS011;11478;51.094;7.030;2024-02-26T05:35:54;7.20;;;1.23;;
22622;SDS011;11478;51.094;7.030;2024-02-26T05:38:21;3.00;;;1.20;;
22622;SDS011;11478;51.094;7.030;2024-02-26T05:40:47;6.30;;;1.35;;
22622;SDS011;11478;51.094;7.030;2024-02-26T05:43:13;2.00;;;1.20;;
22622;SDS011;11478;51.094;7.030;2024-02-26T05:45:43;2.47;;;1.20;;
22622;SDS011;11478;51.094;7.030;2024-02-26T05:48:09;2.05;;;1.30;;
22622;SDS011;11478;51.094;7.030;2024-02-26T05:50:36;2.78;;;1.60;;
22622;SDS011;11478;51.094;7.030;2024-02-26T05:53:02;3.88;;;1.60;;
22622;SDS011;11478;51.094;7.030;2024-02-26T05:55:28;2.30;;;1.38;;
22622;SDS011;11478;51.094;7.030;2024-02-26T05:57:54;2.53;;;1.40;;
22622;SDS011;11478;51.094;7.030;2024-02-26T06:00:20;2.95;;;1.40;;
22622;SDS011;11478;51.094;7.030;2024-02-26T06:02:46;3.45;;;1.73;;
22622;SDS011;11478;51.094;7.030;2024-02-26T06:05:18;3.17;;;1.70;;
22622;SDS011;11478;51.094;7.030;2024-02-26T06:07:44;9.23;;;3.40;;
22622;SDS011;11478;51.094;7.030;2024-02-26T06:10:17;3.95;;;2.65;;
22622;SDS011;11478;51.094;7.030;2024-02-26T06:12:46;5.25;;;2.35;;
22622;SDS011;11478;51.094;7.030;2024-02-26T06:15:14;5.57;;;2.10;;
22622;SDS011;11478;51.094;7.030;2024-02-26T06:17:40;3.75;;;1.98;;
22622;SDS011;11478;51.094;7.030;2024-02-26T06:20:07;3.47;;;1.65;;
22622;SDS011;11478;51.094;7.030;2024-02-26T06:22:37;3.42;;;1.95;;
22622;SDS011;11478;51.094;7.030;2024-02-26T06:25:04;2.88;;;1.65;;
22622;SDS011;11478;51.094;7.030;2024-02-26T06:27:29;5.57;;;1.90;;
22622;SDS011;11478;51.094;7.030;2024-02-26T06:29:55;4.38;;;1.70;;
22622;SDS011;11478;51.094;7.030;2024-02-26T06:32:21;2.65;;;1.70;;
22622;SDS011;11478;51.094;7.030;2024-02-26T06:34:54;3.10;;;1.73;;
22622;SDS011;11478;51.094;7.030;2024-02-26T06:37:21;5.28;;;2.47;;
22622;SDS011;11478;51.094;7.030;2024-02-26T06:39:47;4.82;;;1.92;;
22622;SDS011;11478;51.094;7.030;2024-02-26T06:42:13;3.53;;;1.80;;
22622;SDS011;11478;51.094;7.030;2024-02-26T06:44:39;2.83;;;2.17;;
22622;SDS011;11478;51.094;7.030;2024-02-26T06:47:05;3.03;;;2.25;;
22622;SDS011;11478;51.094;7.030;2024-02-26T06:49:31;3.63;;;2.20;;
22622;SDS011;11478;51.094;7.030;2024-02-26T06:51:57;3.72;;;2.17;;
22622;SDS011;11478;51.094;7.030;2024-02-26T06:57:01;3.03;;;1.80;;
22622;SDS011;11478;51.094;7.030;2024-02-26T06:59:27;3.60;;;2.30;;
22622;SDS011;11478;51.094;7.030;2024-02-26T07:01:53;3.72;;;2.03;;
22622;SDS011;11478;51.094;7.030;2024-02-26T07:04:19;2.50;;;1.85;;
22622;SDS011;11478;51.094;7.030;2024-02-26T07:06:45;3.42;;;1.92;;
22622;SDS011;11478;51.094;7.030;2024-02-26T07:09:13;3.03;;;2.05;;
22622;SDS011;11478;51.094;7.030;2024-02-26T07:11:39;6.28;;;2.28;;
22622;SDS011;11478;51.094;7.030;2024-02-26T07:14:09;3.33;;;1.95;;
22622;SDS011;11478;51.094;7.030;2024-02-26T07:16:38;4.05;;;2.00;;
22622;SDS011;11478;51.094;7.030;2024-02-26T07:19:04;3.40;;;1.92;;
22622;SDS011;11478;51.094;7.030;2024-02-26T07:21:30;6.07;;;2.30;;
22622;SDS011;11478;51.094;7.030;2024-02-26T07:23:56;3.30;;;2.00;;
22622;SDS011;11478;51.094;7.030;2024-02-26T07:26:22;3.75;;;2.03;;
22622;SDS011;11478;51.094;7.030;2024-02-26T07:28:50;2.60;;;1.92;;
22622;SDS011;11478;51.094;7.030;2024-02-26T07:33:45;3.10;;;2.10;;
22622;SDS011;11478;51.094;7.030;2024-02-26T07:36:14;6.10;;;4.07;;
22622;SDS011;11478;51.094;7.030;2024-02-26T07:38:40;3.30;;;2.72;;
22622;SDS011;11478;51.094;7.030;2024-02-26T07:41:06;5.00;;;2.92;;
22622;SDS011;11478;51.094;7.030;2024-02-26T07:43:35;2.83;;;2.33;;
22622;SDS011;11478;51.094;7.030;2024-02-26T07:46:00;3.40;;;2.30;;
22622;SDS011;11478;51.094;7.030;2024-02-26T07:48:28;3.47;;;2.17;;
22622;SDS011;11478;51.094;7.030;2024-02-26T07:50:56;3.65;;;2.25;;
22622;SDS011;11478;51.094;7.030;2024-02-26T07:53:27;5.03;;;2.58;;
22622;SDS011;11478;51.094;7.030;2024-02-26T07:55:53;4.15;;;3.17;;
22622;SDS011;11478;51.094;7.030;2024-02-26T07:58:22;2.80;;;2.08;;
22622;SDS011;11478;51.094;7.030;2024-02-26T08:00:49;2.80;;;1.92;;
22622;SDS011;11478;51.094;7.030;2024-02-26T08:03:15;2.35;;;1.80;;
22622;SDS011;11478;51.094;7.030;2024-02-26T08:05:41;4.28;;;2.22;;
22622;SDS011;11478;51.094;7.030;2024-02-26T08:08:16;2.22;;;1.83;;
22622;SDS011;11478;51.094;7.030;2024-02-26T08:10:42;2.60;;;2.40;;
22622;SDS011;11478;51.094;7.030;2024-02-26T08:13:18;3.95;;;2.22;;
22622;SDS011;11478;51.094;7.030;2024-02-26T08:15:44;4.00;;;2.58;;
22622;SDS011;11478;51.094;7.030;2024-02-26T08:18:28;5.10;;;2.17;;
22622;SDS011;11478;51.094;7.030;2024-02-26T08:20:54;2.45;;;1.98;;
22622;SDS011;11478;51.094;7.030;2024-02-26T08:23:23;3.45;;;1.95;;
22622;SDS011;11478;51.094;7.030;2024-02-26T08:25:50;2.85;;;1.90;;
22622;SDS011;11478;51.094;7.030;2024-02-26T08:28:16;4.13;;;2.15;;
22622;SDS011;11478;51.094;7.030;2024-02-26T08:30:43;2.92;;;2.20;;
22622;SDS011;11478;51.094;7.030;2024-02-26T08:33:10;5.38;;;2.25;;
22622;SDS011;11478;51.094;7.030;2024-02-26T08:35:36;3.38;;;2.00;;
22622;SDS011;11478;51.094;7.030;2024-02-26T08:38:04;2.00;;;1.80;;
22622;SDS011;11478;51.094;7.030;2024-02-26T08:40:31;7.07;;;4.53;;
22622;SDS011;11478;51.094;7.030;2024-02-26T08:42:57;2.67;;;2.10;;
22622;SDS011;11478;51.094;7.030;2024-02-26T08:45:30;3.25;;;2.25;;
22622;SDS011;11478;51.094;7.030;2024-02-26T08:47:59;6.50;;;3.20;;
22622;SDS011;11478;51.094;7.030;2024-02-26T08:50:25;4.82;;;2.63;;
22622;SDS011;11478;51.094;7.030;2024-02-26T08:52:54;5.32;;;2.25;;
22622;SDS011;11478;51.094;7.030;2024-02-26T08:55:20;3.72;;;1.90;;
22622;SDS011;11478;51.094;7.030;2024-02-26T08:57:45;3.55;;;2.35;;
22622;SDS011;11478;51.094;7.030;2024-02-26T09:00:28;3.85;;;2.10;;
22622;SDS011;11478;51.094;7.030;2024-02-26T09:02:54;2.00;;;1.80;;
22622;SDS011;11478;51.094;7.030;2024-02-26T09:05:21;3.25;;;1.80;;
22622;SDS011;11478;51.094;7.030;2024-02-26T09:07:47;4.60;;;2.17;;
22622;SDS011;11478;51.094;7.030;2024-02-26T09:10:17;2.13;;;1.92;;
22622;SDS011;11478;51.094;7.030;2024-02-26T09:12:43;5.40;;;2.33;;
22622;SDS011;11478;51.094;7.030;2024-02-26T09:15:09;2.25;;;1.92;;
22622;SDS011;11478;51.094;7.030;2024-02-26T09:17:35;2.83;;;1.90;;
22622;SDS011;11478;51.094;7.030;2024-02-26T09:33:14;2.00;;;1.80;;
22622;SDS011;11478;51.094;7.030;2024-02-26T09:35:42;3.10;;;1.85;;
22622;SDS011;11478;51.094;7.030;2024-02-26T09:38:09;3.33;;;2.10;;
22622;SDS011;11478;51.094;7.030;2024-02-26T09:40:35;2.67;;;2.20;;
22622;SDS011;11478;51.094;7.030;2024-02-26T09:43:02;3.17;;;1.98;;
22622;SDS011;11478;51.094;7.030;2024-02-26T09:45:32;4.03;;;2.20;;
22622;SDS011;11478;51.094;7.030;2024-02-26T09:47:59;3.88;;;2.13;;
22622;SDS011;11478;51.094;7.030;2024-02-26T09:50:30;3.22;;;2.03;;
22622;SDS011;11478;51.094;7.030;2024-02-26T09:52:56;2.63;;;2.10;;
22622;SDS011;11478;51.094;7.030;2024-02-26T09:57:58;3.00;;;2.20;;
22622;SDS011;11478;51.094;7.030;2024-02-26T10:00:25;3.95;;;2.40;;
22622;SDS011;11478;51.094;7.030;2024-02-26T10:02:55;4.82;;;2.30;;
22622;SDS011;11478;51.094;7.030;2024-02-26T10:05:23;3.97;;;2.28;;
22622;SDS011;11478;51.094;7.030;2024-02-26T10:07:50;2.88;;;2.10;;
22622;SDS011;11478;51.094;7.030;2024-02-26T10:10:24;3.72;;;2.22;;
22622;SDS011;11478;51.094;7.030;2024-02-26T10:12:52;4.53;;;2.55;;
22622;SDS011;11478;51.094;7.030;2024-02-26T10:15:18;4.32;;;3.42;;
22622;SDS011;11478;51.094;7.030;2024-02-26T10:18:00;4.00;;;3.30;;
22622;SDS011;11478;51.094;7.030;2024-02-26T10:20:37;3.65;;;3.10;;
22622;SDS011;11478;51.094;7.030;2024-02-26T10:23:25;4.00;;;3.00;;
22622;SDS011;11478;51.094;7.030;2024-02-26T10:25:57;4.50;;;3.65;;
22622;SDS011;11478;51.094;7.030;2024-02-26T10:28:23;6.93;;;3.50;;
22622;SDS011;11478;51.094;7.030;2024-02-26T10:30:52;3.53;;;2.78;;
22622;SDS011;11478;51.094;7.030;2024-02-26T10:33:27;6.00;;;3.30;;
22622;SDS011;11478;51.094;7.030;2024-02-26T10:35:53;6.43;;;3.40;;
22622;SDS011;11478;51.094;7.030;2024-02-26T10:38:20;5.18;;;3.35;;
22622;SDS011;11478;51.094;7.030;2024-02-26T10:40:50;4.95;;;3.25;;
22622;SDS011;11478;51.094;7.030;2024-02-26T10:45:58;4.70;;;2.92;;
22622;SDS011;11478;51.094;7.030;2024-02-26T10:48:32;4.88;;;2.90;;
22622;SDS011;11478;51.094;7.030;2024-02-26T10:51:03;3.75;;;3.00;;
22622;SDS011;11478;51.094;7.030;2024-02-26T10:53:34;4.30;;;3.30;;
22622;SDS011;11478;51.094;7.030;2024-02-26T10:56:04;3.75;;;2.80;;
22622;SDS011;11478;51.094;7.030;2024-02-26T10:58:31;2.90;;;2.63;;
22622;SDS011;11478;51.094;7.030;2024-02-26T11:01:02;5.30;;;2.72;;
22622;SDS011;11478;51.094;7.030;2024-02-26T11:03:33;5.07;;;2.70;;
22622;SDS011;11478;51.094;7.030;2024-02-26T11:06:04;3.42;;;2.80;;
22622;SDS011;11478;51.094;7.030;2024-02-26T11:08:31;4.22;;;2.92;;
22622;SDS011;11478;51.094;7.030;2024-02-26T11:11:01;5.25;;;3.20;;
22622;SDS011;11478;51.094;7.030;2024-02-26T11:13:29;3.08;;;2.40;;
22622;SDS011;11478;51.094;7.030;2024-02-26T11:15:57;5.70;;;2.90;;
22622;SDS011;11478;51.094;7.030;2024-02-26T11:18:26;4.05;;;2.63;;
22622;SDS011;11478;51.094;7.030;2024-02-26T11:20:56;4.95;;;2.88;;
22622;SDS011;11478;51.094;7.030;2024-02-26T11:23:27;18.73;;;7.90;;
22622;SDS011;11478;51.094;7.030;2024-02-26T11:26:00;5.18;;;3.00;;
22622;SDS011;11478;51.094;7.030;2024-02-26T11:34:38;4.32;;;2.67;;
22622;SDS011;11478;51.094;7.030;2024-02-26T11:40:27;5.72;;;2.67;;
22622;SDS011;11478;51.094;7.030;2024-02-26T11:46:31;6.03;;;3.13;;
22622;SDS011;11478;51.094;7.030;2024-02-26T11:51:56;3.67;;;2.97;;
22622;SDS011;11478;51.094;7.030;2024-02-26T12:00:33;4.95;;;2.88;;
22622;SDS011;11478;51.094;7.030;2024-02-26T12:03:07;5.90;;;3.30;;
22622;SDS011;11478;51.094;7.030;2024-02-26T12:05:36;7.28;;;3.35;;
22622;SDS011;11478;51.094;7.030;2024-02-26T12:08:13;4.22;;;3.30;;
22622;SDS011;11478;51.094;7.030;2024-02-26T12:10:43;4.97;;;3.33;;
22622;SDS011;11478;51.094;7.030;2024-02-26T12:16:37;5.38;;;3.70;;
22622;SDS011;11478;51.094;7.030;2024-02-26T12:19:05;4.68;;;3.42;;
22622;SDS011;11478;51.094;7.030;2024-02-26T12:21:33;6.20;;;3.60;;
22622;SDS011;11478;51.094;7.030;2024-02-26T12:24:26;6.40;;;3.90;;
22622;SDS011;11478;51.094;7.030;2024-02-26T12:26:55;6.25;;;3.88;;
22622;SDS011;11478;51.094;7.030;2024-02-26T12:29:23;5.10;;;3.40;;
22622;SDS011;11478;51.094;7.030;2024-02-26T12:31:54;6.18;;;3.58;;
22622;SDS011;11478;51.094;7.030;2024-02-26T12:34:23;5.78;;;3.70;;
22622;SDS011;11478;51.094;7.030;2024-02-26T12:36:49;6.68;;;4.03;;
22622;SDS011;11478;51.094;7.030;2024-02-26T12:39:15;5.13;;;3.88;;
22622;SDS011;11478;51.094;7.030;2024-02-26T12:41:41;5.55;;;3.97;;
22622;SDS011;11478;51.094;7.030;2024-02-26T12:44:14;5.55;;;3.90;;
22622;SDS011;11478;51.094;7.030;2024-02-26T12:46:44;7.00;;;4.03;;
22622;SDS011;11478;51.094;7.030;2024-02-26T12:49:14;6.53;;;3.78;;
22622;SDS011;11478;51.094;7.030;2024-02-26T12:51:43;4.82;;;3.70;;
22622;SDS011;11478;51.094;7.030;2024-02-26T12:54:21;6.82;;;4.25;;
22622;SDS011;11478;51.094;7.030;2024-02-26T12:56:47;5.07;;;4.03;;
22622;SDS011;11478;51.094;7.030;2024-02-26T12:59:13;8.23;;;4.43;;
22622;SDS011;11478;51.094;7.030;2024-02-26T13:01:41;9.65;;;4.35;;
22622;SDS011;11478;51.094;7.030;2024-02-26T13:04:10;6.90;;;4.55;;
22622;SDS011;11478;51.094;7.030;2024-02-26T13:06:39;6.45;;;4.10;;
22622;SDS011;11478;51.094;7.030;2024-02-26T13:09:05;5.82;;;4.30;;
22622;SDS011;11478;51.094;7.030;2024-02-26T13:11:31;7.32;;;4.82;;
22622;SDS011;11478;51.094;7.030;2024-02-26T13:14:00;5.97;;;4.45;;
22622;SDS011;11478;51.094;7.030;2024-02-26T13:16:26;7.15;;;5.20;;
22622;SDS011;11478;51.094;7.030;2024-02-26T13:19:10;6.88;;;4.50;;
22622;SDS011;11478;51.094;7.030;2024-02-26T13:21:38;7.85;;;5.00;;
22622;SDS011;11478;51.094;7.030;2024-02-26T13:24:05;8.23;;;4.80;;
22622;SDS011;11478;51.094;7.030;2024-02-26T13:26:31;7.32;;;5.15;;
22622;SDS011;11478;51.094;7.030;2024-02-26T13:29:06;7.82;;;5.47;;
22622;SDS011;11478;51.094;7.030;2024-02-26T13:34:34;7.75;;;5.50;;
22622;SDS011;11478;51.094;7.030;2024-02-26T13:37:02;8.50;;;6.15;;
22622;SDS011;11478;51.094;7.030;2024-02-26T13:39:36;10.18;;;6.63;;
22622;SDS011;11478;51.094;7.030;2024-02-26T13:42:03;10.73;;;6.80;;
22622;SDS011;11478;51.094;7.030;2024-02-26T13:47:06;10.48;;;6.93;;
22622;SDS011;11478;51.094;7.030;2024-02-26T13:49:38;10.65;;;7.20;;
22622;SDS011;11478;51.094;7.030;2024-02-26T13:52:04;11.75;;;8.00;;
22622;SDS011;11478;51.094;7.030;2024-02-26T13:54:41;11.63;;;8.85;;
22622;SDS011;11478;51.094;7.030;2024-02-26T13:57:07;16.08;;;9.20;;
22622;SDS011;11478;51.094;7.030;2024-02-26T13:59:33;17.95;;;10.48;;
22622;SDS011;11478;51.094;7.030;2024-02-26T14:01:59;15.20;;;10.00;;
22622;SDS011;11478;51.094;7.030;2024-02-26T14:04:25;12.18;;;9.55;;
22622;SDS011;11478;51.094;7.030;2024-02-26T14:09:22;20.80;;;13.18;;
22622;SDS011;11478;51.094;7.030;2024-02-26T14:11:48;20.15;;;12.30;;
22622;SDS011;11478;51.094;7.030;2024-02-26T14:14:31;18.67;;;12.13;;
22622;SDS011;11478;51.094;7.030;2024-02-26T14:17:00;19.88;;;12.65;;
22622;SDS011;11478;51.094;7.030;2024-02-26T14:19:29;18.23;;;13.13;;
22622;SDS011;11478;51.094;7.030;2024-02-26T14:21:55;21.48;;;13.75;;
22622;SDS011;11478;51.094;7.030;2024-02-26T14:29:29;21.35;;;15.15;;
22622;SDS011;11478;51.094;7.030;2024-02-26T14:34:31;20.05;;;14.40;;
22622;SDS011;11478;51.094;7.030;2024-02-26T14:36:56;20.98;;;13.98;;
22622;SDS011;11478;51.094;7.030;2024-02-26T14:39:23;19.85;;;13.25;;
22622;SDS011;11478;51.094;7.030;2024-02-26T14:41:51;20.45;;;13.95;;
22622;SDS011;11478;51.094;7.030;2024-02-26T14:44:18;26.75;;;14.70;;
22622;SDS011;11478;51.094;7.030;2024-02-26T14:46:44;20.08;;;14.02;;
22622;SDS011;11478;51.094;7.030;2024-02-26T14:49:10;21.75;;;15.27;;
22622;SDS011;11478;51.094;7.030;2024-02-26T14:51:38;20.30;;;14.23;;
22622;SDS011;11478;51.094;7.030;2024-02-26T14:54:04;21.13;;;14.02;;
22622;SDS011;11478;51.094;7.030;2024-02-26T14:56:31;23.63;;;14.20;;
22622;SDS011;11478;51.094;7.030;2024-02-26T14:58:57;21.73;;;15.35;;
22622;SDS011;11478;51.094;7.030;2024-02-26T15:01:26;23.10;;;15.23;;
22622;SDS011;11478;51.094;7.030;2024-02-26T15:03:52;16.90;;;12.48;;
22622;SDS011;11478;51.094;7.030;2024-02-26T15:06:23;18.00;;;13.60;;
22622;SDS011;11478;51.094;7.030;2024-02-26T15:08:49;16.88;;;12.32;;
22622;SDS011;11478;51.094;7.030;2024-02-26T15:11:15;15.70;;;12.25;;
22622;SDS011;11478;51.094;7.030;2024-02-26T15:13:41;23.20;;;13.18;;
22622;SDS011;11478;51.094;7.030;2024-02-26T15:16:18;16.42;;;11.75;;
22622;SDS011;11478;51.094;7.030;2024-02-26T15:18:45;16.65;;;11.90;;
22622;SDS011;11478;51.094;7.030;2024-02-26T15:21:12;15.70;;;11.15;;
22622;SDS011;11478;51.094;7.030;2024-02-26T15:23:38;16.92;;;10.55;;
22622;SDS011;11478;51.094;7.030;2024-02-26T15:26:08;14.10;;;10.73;;
22622;SDS011;11478;51.094;7.030;2024-02-26T15:28:34;15.93;;;11.13;;
22622;SDS011;11478;51.094;7.030;2024-02-26T15:31:03;15.13;;;10.93;;
22622;SDS011;11478;51.094;7.030;2024-02-26T15:33:32;13.70;;;10.32;;
22622;SDS011;11478;51.094;7.030;2024-02-26T15:35:57;15.15;;;10.52;;
22622;SDS011;11478;51.094;7.030;2024-02-26T15:38:23;16.33;;;10.95;;
22622;SDS011;11478;51.094;7.030;2024-02-26T15:40:49;14.38;;;11.43;;
22622;SDS011;11478;51.094;7.030;2024-02-26T15:43:15;16.42;;;11.32;;
22622;SDS011;11478;51.094;7.030;2024-02-26T15:45:42;15.07;;;11.23;;
22622;SDS011;11478;51.094;7.030;2024-02-26T15:48:08;13.95;;;11.30;;
22622;SDS011;11478;51.094;7.030;2024-02-26T15:50:35;16.65;;;11.10;;
22622;SDS011;11478;51.094;7.030;2024-02-26T15:53:03;16.23;;;11.15;;
22622;SDS011;11478;51.094;7.030;2024-02-26T15:58:47;28.93;;;18.70;;
22622;SDS011;11478;51.094;7.030;2024-02-26T16:04:59;16.38;;;11.73;;
22622;SDS011;11478;51.094;7.030;2024-02-26T16:07:59;14.35;;;10.23;;
22622;SDS011;11478;51.094;7.030;2024-02-26T16:10:41;15.57;;;10.80;;
22622;SDS011;11478;51.094;7.030;2024-02-26T16:13:09;14.57;;;10.93;;
22622;SDS011;11478;51.094;7.030;2024-02-26T16:15:47;17.33;;;11.10;;
22622;SDS011;11478;51.094;7.030;2024-02-26T16:18:33;15.10;;;11.70;;
22622;SDS011;11478;51.094;7.030;2024-02-26T16:21:08;18.00;;;11.82;;
22622;SDS011;11478;51.094;7.030;2024-02-26T16:23:38;16.58;;;11.48;;
22622;SDS011;11478;51.094;7.030;2024-02-26T16:26:07;13.52;;;10.50;;
22622;SDS011;11478;51.094;7.030;2024-02-26T16:28:35;17.90;;;12.43;;
22622;SDS011;11478;51.094;7.030;2024-02-26T16:31:04;18.25;;;13.45;;
22622;SDS011;11478;51.094;7.030;2024-02-26T16:33:33;24.15;;;16.27;;
22622;SDS011;11478;51.094;7.030;2024-02-26T16:36:02;22.38;;;15.48;;
22622;SDS011;11478;51.094;7.030;2024-02-26T16:38:31;28.15;;;15.80;;